Time;durP1;ratioP1;P1;durP2;ratioP2;P2;SDS_P1;SDS_P2;PMS_P1;PMS_P2;Temp;Humidity;BMP_temperature;BMP_pressure;BME280_temperature;BME280_humidity;BME280_pressure;Samples;Min_cycle;Max_cycle;Signal;HPM_P1;HPM_P2
2024/02/17 00:02:08;;;;;;;18.20;7.53;;;9.10;95.90;;;;;;4961611;28;20143;-82
2024/02/17 00:04:34;;;;;;;17.27;7.22;;;9.10;95.90;;;;;;4955023;28;20027;-82
2024/02/17 00:07:00;;;;;;;22.60;8.15;;;9.10;95.90;;;;;;4964875;28;20105;-80
2024/02/17 00:09:25;;;;;;;16.45;6.68;;;9.00;96.00;;;;;;4978911;28;20045;-83
2024/02/17 00:11:51;;;;;;;20.00;7.15;;;9.10;96.00;;;;;;4978816;28;20298;-82
2024/02/17 00:14:17;;;;;;;17.13;7.43;;;9.00;95.90;;;;;;4980388;28;20471;-82
2024/02/17 00:16:43;;;;;;;14.27;6.35;;;9.00;96.00;;;;;;4977376;28;20348;-82
2024/02/17 00:19:08;;;;;;;17.75;6.93;;;8.90;96.00;;;;;;4976410;28;20443;-81
2024/02/17 00:21:34;;;;;;;21.95;6.40;;;9.00;96.00;;;;;;4976488;28;20447;-80
2024/02/17 00:24:00;;;;;;;19.23;7.03;;;9.00;96.00;;;;;;4981568;28;20389;-82
2024/02/17 00:26:25;;;;;;;17.15;6.90;;;9.00;95.90;;;;;;4975398;28;20169;-78
2024/02/17 00:28:51;;;;;;;17.92;6.63;;;9.00;95.90;;;;;;4979622;28;20030;-82
2024/02/17 00:31:18;;;;;;;15.05;6.18;;;9.00;95.80;;;;;;4978650;28;20441;-83
2024/02/17 00:33:44;;;;;;;15.05;6.13;;;9.00;95.70;;;;;;4979737;28;20571;-82
2024/02/17 00:36:10;;;;;;;15.95;6.30;;;9.00;95.80;;;;;;4972947;28;20559;-80
2024/02/17 00:38:36;;;;;;;19.30;6.13;;;9.00;95.70;;;;;;4976511;28;20138;-82
2024/02/17 00:41:06;;;;;;;18.65;5.90;;;8.90;95.70;;;;;;4969578;28;20674;-78
2024/02/17 00:43:32;;;;;;;16.88;6.20;;;9.00;95.70;;;;;;4962166;28;20025;-81
2024/02/17 00:45:58;;;;;;;15.60;5.95;;;9.00;95.70;;;;;;4957290;28;20039;-78
2024/02/17 00:48:25;;;;;;;14.93;6.07;;;8.90;95.60;;;;;;4957349;28;20468;-78
2024/02/17 00:50:51;;;;;;;16.02;6.13;;;8.90;95.60;;;;;;4956615;28;20615;-80
2024/02/17 00:53:17;;;;;;;17.70;6.60;;;8.90;95.70;;;;;;4956520;28;20027;-79
2024/02/17 00:55:43;;;;;;;14.05;6.70;;;8.90;95.60;;;;;;4966251;28;20449;-81
2024/02/17 00:58:08;;;;;;;12.40;5.88;;;8.90;95.60;;;;;;4976248;28;20034;-82
2024/02/17 01:00:34;;;;;;;17.75;6.82;;;8.80;95.60;;;;;;4972431;28;20489;-79
2024/02/17 01:03:00;;;;;;;14.65;6.53;;;8.80;95.50;;;;;;4972944;28;20072;-81
2024/02/17 01:05:26;;;;;;;15.80;6.93;;;8.80;95.50;;;;;;4981171;28;20083;-82
2024/02/17 01:07:51;;;;;;;18.08;6.68;;;8.70;95.50;;;;;;4971203;28;20057;-80
2024/02/17 01:10:17;;;;;;;14.70;6.50;;;8.70;95.40;;;;;;4976217;28;20034;-80
2024/02/17 01:12:43;;;;;;;16.23;6.35;;;8.70;95.40;;;;;;4976925;28;20340;-81
2024/02/17 01:15:09;;;;;;;18.00;7.13;;;8.70;95.30;;;;;;4976884;28;20030;-82
2024/02/17 01:17:35;;;;;;;17.60;5.90;;;8.60;95.30;;;;;;4958964;28;20047;-79
2024/02/17 01:20:01;;;;;;;16.65;6.30;;;8.60;95.30;;;;;;4960946;28;20715;-77
2024/02/17 01:22:27;;;;;;;19.73;5.95;;;8.60;95.30;;;;;;4963977;28;20035;-83
2024/02/17 01:24:53;;;;;;;15.27;5.38;;;8.60;95.20;;;;;;4955068;28;20034;-81
2024/02/17 01:27:18;;;;;;;16.52;5.53;;;8.60;95.20;;;;;;4968855;28;20043;-81
2024/02/17 01:29:44;;;;;;;15.05;6.18;;;8.50;95.20;;;;;;4971278;28;20424;-80
2024/02/17 01:32:10;;;;;;;16.35;5.75;;;8.50;95.30;;;;;;4975387;28;20489;-81
2024/02/17 01:34:36;;;;;;;12.38;5.32;;;8.40;95.30;;;;;;4976699;28;20132;-77
2024/02/17 01:37:02;;;;;;;15.70;5.57;;;8.50;95.40;;;;;;4975900;28;20030;-80
2024/02/17 01:39:28;;;;;;;18.15;6.65;;;8.40;95.40;;;;;;4978980;28;20014;-80
2024/02/17 01:41:54;;;;;;;16.30;5.75;;;8.40;95.40;;;;;;4967510;28;20033;-81
2024/02/17 01:44:20;;;;;;;18.48;6.28;;;8.40;95.50;;;;;;4959048;28;20436;-78
2024/02/17 01:46:47;;;;;;;16.85;6.05;;;8.40;95.40;;;;;;4969282;28;20035;-78
2024/02/17 01:49:14;;;;;;;17.52;5.43;;;8.40;95.40;;;;;;4973945;28;20303;-81
2024/02/17 01:51:40;;;;;;;12.52;5.75;;;8.40;95.40;;;;;;4966731;28;20039;-79
2024/02/17 01:54:06;;;;;;;16.65;5.45;;;8.40;95.40;;;;;;4954902;28;20280;-82
2024/02/17 01:56:32;;;;;;;15.10;5.95;;;8.40;95.50;;;;;;4970278;28;20480;-81
2024/02/17 01:58:58;;;;;;;20.17;6.32;;;8.30;95.40;;;;;;4974773;28;20096;-78
2024/02/17 02:01:25;;;;;;;14.95;5.93;;;8.30;95.50;;;;;;4976151;28;20512;-80
2024/02/17 02:03:50;;;;;;;17.60;5.53;;;8.30;95.40;;;;;;4977368;28;20022;-80
2024/02/17 02:06:24;;;;;;;15.15;5.22;;;8.20;95.40;;;;;;4970409;28;20093;-80
2024/02/17 02:08:50;;;;;;;16.90;5.60;;;8.20;95.40;;;;;;4957829;28;20046;-81
2024/02/17 02:11:20;;;;;;;16.38;5.28;;;8.20;95.50;;;;;;4962805;28;20446;-79
2024/02/17 02:13:45;;;;;;;18.85;6.13;;;8.20;95.50;;;;;;4953726;28;20032;-78
2024/02/17 02:16:11;;;;;;;16.38;6.00;;;8.10;95.60;;;;;;4960411;28;20105;-79
2024/02/17 02:18:37;;;;;;;14.25;5.65;;;8.10;95.50;;;;;;4958955;28;20473;-81
2024/02/17 02:21:06;;;;;;;19.48;6.07;;;8.10;95.50;;;;;;4964137;28;20224;-78
2024/02/17 02:23:34;;;;;;;17.60;5.68;;;8.10;95.60;;;;;;4975943;28;20149;-81
2024/02/17 02:26:00;;;;;;;18.17;5.75;;;8.10;95.60;;;;;;4973255;28;20115;-79
2024/02/17 02:28:26;;;;;;;15.95;5.47;;;8.10;95.60;;;;;;4947979;28;20067;-78
2024/02/17 02:30:56;;;;;;;15.25;5.40;;;8.10;95.60;;;;;;4960820;28;20504;-82
2024/02/17 02:33:21;;;;;;;18.52;6.10;;;8.10;95.60;;;;;;4976582;28;20025;-82
2024/02/17 02:35:47;;;;;;;13.30;5.32;;;8.00;95.60;;;;;;4976057;28;20042;-80
2024/02/17 02:38:13;;;;;;;15.40;6.05;;;8.00;95.70;;;;;;4978161;28;20036;-80
2024/02/17 02:40:38;;;;;;;18.02;6.18;;;8.10;95.70;;;;;;4974849;28;20046;-81
2024/02/17 02:43:04;;;;;;;15.40;5.50;;;8.00;95.70;;;;;;4975530;28;20034;-82
2024/02/17 02:45:31;;;;;;;16.67;5.68;;;8.00;95.60;;;;;;4973161;28;20125;-80
2024/02/17 02:47:56;;;;;;;18.95;5.38;;;8.10;95.70;;;;;;4954488;28;20044;-79
2024/02/17 02:50:22;;;;;;;19.45;5.82;;;8.00;95.60;;;;;;4961952;28;20187;-81
2024/02/17 02:52:48;;;;;;;18.15;5.45;;;8.00;95.60;;;;;;4973346;28;20398;-82
2024/02/17 02:55:13;;;;;;;17.10;5.55;;;7.90;95.60;;;;;;4974688;28;20037;-79
2024/02/17 02:57:39;;;;;;;17.08;5.28;;;8.00;95.70;;;;;;4971979;28;20062;-80
2024/02/17 03:00:06;;;;;;;16.88;5.20;;;8.00;95.70;;;;;;4975518;28;20151;-81
2024/02/17 03:02:32;;;;;;;15.68;5.40;;;8.00;95.70;;;;;;4961202;28;20110;-81
2024/02/17 03:04:57;;;;;;;15.35;5.20;;;8.00;95.70;;;;;;4959725;28;20165;-82
2024/02/17 03:07:23;;;;;;;13.93;5.20;;;8.10;95.60;;;;;;4959009;28;20110;-79
2024/02/17 03:09:49;;;;;;;23.45;5.72;;;8.10;95.60;;;;;;4955163;28;20031;-81
2024/02/17 03:12:15;;;;;;;20.02;5.60;;;8.10;95.50;;;;;;4955813;28;20473;-79
2024/02/17 03:14:42;;;;;;;18.17;4.78;;;8.10;95.60;;;;;;4958587;28;20033;-80
2024/02/17 03:17:08;;;;;;;18.50;5.70;;;8.10;95.60;;;;;;4954255;28;20093;-81
2024/02/17 03:19:33;;;;;;;11.65;5.00;;;8.20;95.50;;;;;;4954979;28;20461;-77
2024/02/17 03:21:59;;;;;;;14.23;5.00;;;8.20;95.50;;;;;;4958125;28;20043;-80
2024/02/17 03:24:25;;;;;;;14.80;5.20;;;8.20;95.50;;;;;;4956374;28;20542;-77
2024/02/17 03:26:52;;;;;;;11.55;4.75;;;8.30;95.40;;;;;;4971083;28;20488;-78
2024/02/17 03:29:18;;;;;;;13.30;4.68;;;8.40;95.30;;;;;;4977023;28;20026;-81
2024/02/17 03:31:45;;;;;;;14.05;4.43;;;8.40;95.20;;;;;;4973907;28;20042;-81
2024/02/17 03:34:11;;;;;;;18.35;5.65;;;8.50;95.20;;;;;;4978247;28;20448;-79
2024/02/17 03:36:36;;;;;;;17.13;5.93;;;8.40;94.90;;;;;;4972122;28;20568;-83
2024/02/17 03:39:08;;;;;;;12.55;4.47;;;8.50;94.90;;;;;;4982184;28;20026;-79
2024/02/17 03:41:35;;;;;;;15.30;4.40;;;8.50;94.80;;;;;;4966523;28;20039;-82
2024/02/17 03:44:03;;;;;;;14.05;5.05;;;8.50;94.80;;;;;;4952712;28;20027;-79
2024/02/17 03:46:29;;;;;;;11.77;4.68;;;8.50;94.70;;;;;;4969071;28;20041;-79
2024/02/17 03:48:54;;;;;;;17.48;5.60;;;8.60;94.70;;;;;;4976465;28;20023;-79
2024/02/17 03:51:20;;;;;;;12.05;4.32;;;8.60;94.60;;;;;;4970208;28;20328;-79
2024/02/17 03:53:46;;;;;;;16.33;4.82;;;8.60;94.50;;;;;;4954262;28;20035;-82
2024/02/17 03:56:15;;;;;;;13.52;4.70;;;8.60;94.40;;;;;;4964012;28;20125;-80
2024/02/17 03:58:41;;;;;;;11.38;5.28;;;8.60;94.40;;;;;;4958523;28;20296;-79
2024/02/17 04:01:07;;;;;;;12.68;4.20;;;8.70;94.40;;;;;;4957197;28;20445;-82
2024/02/17 04:03:33;;;;;;;16.08;5.05;;;8.70;94.30;;;;;;4961213;28;20030;-82
2024/02/17 04:05:58;;;;;;;12.88;4.53;;;8.70;94.10;;;;;;4966935;28;20042;-80
2024/02/17 04:08:24;;;;;;;16.80;5.78;;;8.70;94.00;;;;;;4970885;28;20333;-81
2024/02/17 04:10:50;;;;;;;14.27;4.90;;;8.70;93.90;;;;;;4974384;28;20022;-80
2024/02/17 04:13:16;;;;;;;16.02;4.45;;;8.70;93.90;;;;;;4980411;28;20117;-81
2024/02/17 04:15:42;;;;;;;12.82;4.97;;;8.80;93.90;;;;;;4976431;28;20155;-79
2024/02/17 04:18:11;;;;;;;14.57;5.13;;;8.70;93.90;;;;;;4958286;28;20042;-80
2024/02/17 04:20:37;;;;;;;17.15;5.97;;;8.80;93.80;;;;;;4957414;28;20043;-80
2024/02/17 04:23:04;;;;;;;16.95;5.43;;;8.80;93.80;;;;;;4977489;28;20438;-80
2024/02/17 04:25:30;;;;;;;14.30;4.85;;;8.80;93.70;;;;;;4969624;28;20054;-80
2024/02/17 04:27:56;;;;;;;15.38;4.85;;;8.80;93.70;;;;;;4957675;28;20376;-81
2024/02/17 04:30:21;;;;;;;14.90;5.32;;;8.80;93.70;;;;;;4962938;28;20046;-80
2024/02/17 04:32:47;;;;;;;15.82;4.88;;;8.80;93.70;;;;;;4956329;28;20043;-78
2024/02/17 04:35:13;;;;;;;18.17;5.47;;;8.80;93.70;;;;;;4962240;28;20042;-80
2024/02/17 04:37:39;;;;;;;15.55;5.00;;;8.80;93.70;;;;;;4956744;28;20312;-81
2024/02/17 04:40:06;;;;;;;14.50;5.03;;;8.80;93.70;;;;;;4959918;28;20059;-80
2024/02/17 04:42:32;;;;;;;17.80;5.13;;;8.80;93.70;;;;;;4978862;28;20121;-81
2024/02/17 04:44:57;;;;;;;12.50;5.30;;;8.80;93.60;;;;;;4975427;28;20117;-82
2024/02/17 04:47:26;;;;;;;13.02;4.80;;;8.70;93.60;;;;;;4959119;28;20149;-81
2024/02/17 04:49:51;;;;;;;18.20;5.05;;;8.80;93.60;;;;;;4956551;28;20488;-79
2024/02/17 04:52:17;;;;;;;12.13;5.28;;;8.70;93.60;;;;;;4972210;28;20026;-82
2024/02/17 04:54:42;;;;;;;13.13;5.00;;;8.70;93.70;;;;;;4975530;28;20037;-79
2024/02/17 04:57:08;;;;;;;17.80;5.47;;;8.70;93.70;;;;;;4965196;28;20102;-80
2024/02/17 04:59:34;;;;;;;16.60;5.93;;;8.70;93.60;;;;;;4958518;28;20037;-78
2024/02/17 05:01:59;;;;;;;14.32;4.45;;;8.80;93.80;;;;;;4960977;28;20030;-79
2024/02/17 05:04:25;;;;;;;12.50;5.53;;;8.70;93.80;;;;;;4956970;28;20057;-79
2024/02/17 05:06:51;;;;;;;15.90;5.57;;;8.70;93.80;;;;;;4972747;28;20026;-81
2024/02/17 05:09:17;;;;;;;16.15;5.60;;;8.80;93.80;;;;;;4978718;28;20041;-81
2024/02/17 05:11:42;;;;;;;19.52;5.53;;;8.80;93.90;;;;;;4977080;28;20042;-78
2024/02/17 05:14:08;;;;;;;14.82;5.70;;;8.70;93.80;;;;;;4977716;28;20037;-79
2024/02/17 05:16:34;;;;;;;17.70;5.07;;;8.80;93.90;;;;;;4967758;28;20086;-81
2024/02/17 05:18:59;;;;;;;16.02;5.63;;;8.70;93.90;;;;;;4954830;28;20030;-81
2024/02/17 05:21:26;;;;;;;15.27;5.22;;;8.80;93.90;;;;;;4960132;28;20041;-78
2024/02/17 05:23:51;;;;;;;12.63;5.10;;;8.80;93.90;;;;;;4958221;28;20508;-78
2024/02/17 05:26:17;;;;;;;13.50;5.50;;;8.80;93.90;;;;;;4965528;28;20047;-81
2024/02/17 05:28:43;;;;;;;12.25;5.43;;;8.80;93.80;;;;;;4976350;28;20543;-79
2024/02/17 05:31:27;;;;;;;12.15;4.80;;;8.80;93.80;;;;;;4965830;28;20042;-80
2024/02/17 05:33:53;;;;;;;14.38;5.47;;;8.70;93.80;;;;;;4956891;28;20414;-79
2024/02/17 05:36:19;;;;;;;14.13;5.47;;;8.80;93.80;;;;;;4952633;28;20118;-81
2024/02/17 05:38:45;;;;;;;15.00;5.43;;;8.80;93.80;;;;;;4959225;28;20460;-81
2024/02/17 05:41:12;;;;;;;13.88;5.75;;;8.80;93.80;;;;;;4958115;28;20030;-81
2024/02/17 05:43:37;;;;;;;19.15;5.90;;;8.80;93.80;;;;;;4952935;28;20462;-81
2024/02/17 05:46:03;;;;;;;15.70;5.90;;;8.80;93.80;;;;;;4959741;28;20154;-77
2024/02/17 05:48:29;;;;;;;14.52;5.20;;;8.80;93.80;;;;;;4977196;28;20164;-81
2024/02/17 05:50:54;;;;;;;11.52;5.07;;;8.80;93.70;;;;;;4962665;28;20101;-78
2024/02/17 05:53:20;;;;;;;13.27;5.18;;;8.90;93.80;;;;;;4982362;28;20050;-81
2024/02/17 05:55:46;;;;;;;15.10;5.82;;;8.90;93.80;;;;;;4970589;28;20529;-81
2024/02/17 05:58:12;;;;;;;14.70;5.47;;;8.90;93.90;;;;;;4959175;28;20108;-82
2024/02/17 06:00:39;;;;;;;13.85;5.07;;;8.90;93.90;;;;;;4963168;28;20022;-81
2024/02/17 06:03:04;;;;;;;14.70;5.18;;;8.80;93.80;;;;;;4982750;28;20061;-81
2024/02/17 06:05:32;;;;;;;18.25;6.32;;;8.90;93.90;;;;;;4974597;28;20070;-82
2024/02/17 06:07:58;;;;;;;14.75;5.15;;;8.90;93.80;;;;;;4952607;28;20047;-81
2024/02/17 06:10:24;;;;;;;20.48;7.03;;;8.90;93.70;;;;;;4959215;28;20030;-79
2024/02/17 06:12:50;;;;;;;18.38;7.00;;;8.90;93.70;;;;;;4958628;28;20053;-82
2024/02/17 06:15:16;;;;;;;18.95;7.10;;;8.90;93.70;;;;;;4955986;28;20042;-79
2024/02/17 06:17:43;;;;;;;16.15;5.95;;;8.80;93.70;;;;;;4974569;28;20385;-80
2024/02/17 06:22:54;;;;;;;14.25;6.35;;;8.90;93.70;;;;;;4971132;28;20058;-81
2024/02/17 06:25:20;;;;;;;12.80;6.18;;;8.80;93.70;;;;;;4974205;28;20649;-81
2024/02/17 06:27:46;;;;;;;17.10;6.65;;;8.90;93.70;;;;;;4973978;28;20428;-81
2024/02/17 06:30:14;;;;;;;18.15;6.30;;;8.90;93.80;;;;;;4969355;28;20089;-81
2024/02/17 06:32:40;;;;;;;13.98;6.05;;;8.90;93.80;;;;;;4973445;28;20043;-79
2024/02/17 06:35:06;;;;;;;14.68;6.18;;;8.90;93.80;;;;;;4976441;28;20507;-80
2024/02/17 06:37:34;;;;;;;13.32;6.53;;;8.90;93.80;;;;;;4972346;28;20034;-80
2024/02/17 06:40:00;;;;;;;13.60;6.15;;;8.90;93.80;;;;;;4975874;28;20022;-81
2024/02/17 06:42:25;;;;;;;14.55;6.30;;;8.90;93.90;;;;;;4976533;28;20566;-78
2024/02/17 06:44:51;;;;;;;16.85;6.57;;;8.90;93.90;;;;;;4974078;28;20034;-80
2024/02/17 06:47:17;;;;;;;17.20;6.63;;;8.90;93.90;;;;;;4976749;28;20113;-81
2024/02/17 06:49:42;;;;;;;14.88;7.55;;;8.90;93.90;;;;;;4975700;28;20062;-80
2024/02/17 06:52:09;;;;;;;15.73;6.40;;;8.90;93.90;;;;;;4973861;28;20089;-79
2024/02/17 06:54:35;;;;;;;15.65;6.88;;;8.90;93.90;;;;;;4972258;28;20105;-77
2024/02/17 06:57:00;;;;;;;15.32;7.30;;;8.90;93.80;;;;;;4975054;28;20532;-80
2024/02/17 06:59:26;;;;;;;16.95;6.90;;;8.90;93.80;;;;;;4974844;28;20365;-77
2024/02/17 07:01:52;;;;;;;17.80;8.13;;;9.00;93.80;;;;;;4970943;28;20061;-77
2024/02/17 07:04:17;;;;;;;16.98;7.05;;;8.90;93.80;;;;;;4976540;28;20693;-80
2024/02/17 07:06:43;;;;;;;16.92;7.63;;;8.90;93.80;;;;;;4962651;28;20046;-79
2024/02/17 07:09:14;;;;;;;16.25;6.93;;;9.00;93.90;;;;;;4962285;28;20077;-80
2024/02/17 07:11:40;;;;;;;15.25;7.28;;;8.90;93.90;;;;;;4970244;28;20107;-80
2024/02/17 07:14:06;;;;;;;15.55;7.60;;;8.90;93.90;;;;;;4961176;28;20515;-80
2024/02/17 07:16:32;;;;;;;16.50;7.35;;;8.90;93.90;;;;;;4971521;28;20354;-81
2024/02/17 07:18:59;;;;;;;14.57;7.30;;;8.90;93.90;;;;;;4981017;28;20432;-80
2024/02/17 07:21:25;;;;;;;16.50;7.20;;;9.00;93.90;;;;;;4975935;28;20468;-77
2024/02/17 07:23:51;;;;;;;21.35;8.15;;;9.00;93.90;;;;;;4981675;28;20084;-81
2024/02/17 07:26:17;;;;;;;19.02;7.60;;;9.00;93.90;;;;;;4980047;28;20046;-81
2024/02/17 07:28:43;;;;;;;17.73;7.55;;;9.00;93.90;;;;;;4982515;28;20038;-78
2024/02/17 07:31:13;;;;;;;15.10;7.72;;;9.00;93.90;;;;;;4977112;28;20103;-79
2024/02/17 07:33:39;;;;;;;14.68;7.80;;;9.00;93.90;;;;;;4977592;28;20449;-82
2024/02/17 07:36:05;;;;;;;15.85;7.38;;;9.10;93.90;;;;;;4972321;28;20084;-79
2024/02/17 07:38:31;;;;;;;20.73;8.00;;;9.10;93.90;;;;;;4975406;28;20342;-82
2024/02/17 07:40:56;;;;;;;15.18;8.07;;;9.10;93.90;;;;;;4981251;28;20120;-81
2024/02/17 07:43:22;;;;;;;16.08;7.82;;;9.10;93.80;;;;;;4973971;28;20392;-82
2024/02/17 07:45:48;;;;;;;15.35;7.40;;;9.10;93.70;;;;;;4976114;28;20153;-80
2024/02/17 07:48:15;;;;;;;17.10;7.82;;;9.20;93.80;;;;;;4982163;28;20038;-79
2024/02/17 07:50:42;;;;;;;15.63;7.78;;;9.20;93.70;;;;;;4974930;28;20042;-79
2024/02/17 07:53:08;;;;;;;15.13;7.53;;;9.20;93.60;;;;;;4976632;28;20488;-79
2024/02/17 07:55:33;;;;;;;16.25;7.40;;;9.20;93.60;;;;;;4977155;28;20030;-79
2024/02/17 07:57:59;;;;;;;21.70;9.40;;;9.30;93.60;;;;;;4960687;28;20046;-79
2024/02/17 08:00:25;;;;;;;14.88;7.25;;;9.30;93.50;;;;;;4959973;28;20476;-80
2024/02/17 08:02:51;;;;;;;15.77;8.73;;;9.30;93.50;;;;;;4976776;28;20034;-77
2024/02/17 08:05:17;;;;;;;20.85;8.93;;;9.40;93.50;;;;;;4979188;28;20314;-78
2024/02/17 08:07:43;;;;;;;13.63;8.68;;;9.40;93.40;;;;;;4975509;28;20807;-77
2024/02/17 08:10:11;;;;;;;16.75;9.70;;;9.50;93.40;;;;;;4979190;28;20518;-78
2024/02/17 08:12:37;;;;;;;15.85;8.85;;;9.60;93.30;;;;;;4956454;28;20026;-79
2024/02/17 08:15:06;;;;;;;17.13;9.60;;;9.60;93.40;;;;;;4962108;28;20035;-79
2024/02/17 08:17:32;;;;;;;18.63;9.80;;;9.60;93.30;;;;;;4975129;28;20034;-78
2024/02/17 08:19:58;;;;;;;18.15;9.57;;;9.70;93.10;;;;;;4977712;28;20034;-78
2024/02/17 08:22:24;;;;;;;18.05;9.23;;;9.80;93.20;;;;;;4976411;28;20046;-77
2024/02/17 08:24:49;;;;;;;18.25;9.85;;;9.90;93.00;;;;;;4979186;28;20141;-81
2024/02/17 08:27:15;;;;;;;21.35;9.50;;;9.90;93.00;;;;;;4962895;28;20038;-79
2024/02/17 08:29:40;;;;;;;20.40;9.60;;;9.90;92.80;;;;;;4959699;28;20023;-80
2024/02/17 08:32:06;;;;;;;21.85;10.95;;;10.00;92.70;;;;;;4974817;28;20797;-79
2024/02/17 08:34:32;;;;;;;21.23;10.85;;;10.10;92.70;;;;;;4976973;28;20057;-79
2024/02/17 08:36:57;;;;;;;19.02;10.93;;;10.10;92.30;;;;;;4963453;28;20027;-79
2024/02/17 08:39:23;;;;;;;18.77;10.27;;;10.20;92.10;;;;;;4954227;28;20492;-79
2024/02/17 08:41:49;;;;;;;17.83;10.50;;;10.20;92.00;;;;;;4970674;28;20034;-79
2024/02/17 08:44:15;;;;;;;20.63;10.32;;;10.30;91.90;;;;;;4978819;28;20022;-79
2024/02/17 08:46:40;;;;;;;15.68;9.40;;;10.40;91.90;;;;;;4973363;28;20370;-79
2024/02/17 08:49:06;;;;;;;20.20;8.68;;;10.50;91.80;;;;;;4975433;28;20023;-78
2024/02/17 08:51:32;;;;;;;16.83;8.48;;;10.60;91.60;;;;;;4973574;28;20066;-78
2024/02/17 08:53:57;;;;;;;18.63;8.90;;;10.60;91.60;;;;;;4977148;28;20025;-79
2024/02/17 08:56:24;;;;;;;17.33;9.05;;;10.70;91.40;;;;;;4974262;28;20583;-79
2024/02/17 08:58:50;;;;;;;16.92;9.30;;;10.70;91.20;;;;;;4975107;28;20023;-79
2024/02/17 09:01:16;;;;;;;16.77;8.98;;;10.80;91.10;;;;;;4973218;28;20022;-79
2024/02/17 09:03:45;;;;;;;15.35;9.25;;;10.90;90.90;;;;;;4977567;28;20030;-78
2024/02/17 09:06:11;;;;;;;19.25;10.10;;;10.90;90.50;;;;;;4969782;28;20165;-79
2024/02/17 09:08:36;;;;;;;18.25;9.23;;;11.00;90.50;;;;;;4977648;28;20219;-78
2024/02/17 09:11:02;;;;;;;20.42;9.88;;;11.10;90.40;;;;;;4966141;28;20162;-79
2024/02/17 09:13:28;;;;;;;16.02;8.25;;;11.30;90.00;;;;;;4956783;28;20035;-78
2024/02/17 09:15:53;;;;;;;18.75;9.00;;;11.30;89.50;;;;;;4968981;28;20058;-79
2024/02/17 09:18:19;;;;;;;14.77;8.80;;;11.30;89.40;;;;;;4975888;28;20380;-78
2024/02/17 09:20:44;;;;;;;22.55;8.88;;;11.30;89.20;;;;;;4979068;28;20034;-79
2024/02/17 09:23:10;;;;;;;15.38;8.93;;;11.40;89.10;;;;;;4961755;28;20065;-79
2024/02/17 09:25:36;;;;;;;20.27;9.60;;;11.40;89.10;;;;;;4960676;28;20073;-76
2024/02/17 09:28:02;;;;;;;16.48;9.32;;;11.40;89.40;;;;;;4980142;28;20040;-74
2024/02/17 09:30:28;;;;;;;20.02;9.23;;;11.40;89.30;;;;;;4972215;28;20267;-74
2024/02/17 09:32:53;;;;;;;15.82;9.30;;;11.50;89.40;;;;;;4957973;28;20531;-73
2024/02/17 09:35:19;;;;;;;16.52;8.95;;;11.50;89.00;;;;;;4959822;28;20152;-73
2024/02/17 09:37:45;;;;;;;19.48;9.02;;;11.50;88.50;;;;;;4975834;28;20038;-73
2024/02/17 09:40:14;;;;;;;15.95;9.38;;;11.50;88.90;;;;;;4973144;28;20236;-74
2024/02/17 09:42:40;;;;;;;17.17;9.35;;;11.70;89.30;;;;;;4955747;28;20027;-73
2024/02/17 09:45:06;;;;;;;21.90;8.82;;;12.10;88.70;;;;;;4956693;28;20100;-72
2024/02/17 09:47:35;;;;;;;14.75;9.23;;;12.40;88.30;;;;;;4976552;28;20388;-72
2024/02/17 09:50:02;;;;;;;20.35;8.15;;;12.60;86.90;;;;;;4977257;28;20306;-72
2024/02/17 09:52:29;;;;;;;17.35;7.97;;;13.00;86.20;;;;;;4960116;28;20105;-72
2024/02/17 09:54:57;;;;;;;19.95;8.48;;;13.30;85.30;;;;;;4959138;28;20432;-73
2024/02/17 09:57:22;;;;;;;21.45;8.35;;;13.60;84.90;;;;;;4970878;28;20105;-73
2024/02/17 09:59:48;;;;;;;16.77;8.13;;;13.70;83.10;;;;;;4976020;28;20583;-74
2024/02/17 10:02:13;;;;;;;15.63;8.07;;;13.70;82.50;;;;;;4962540;28;20034;-73
2024/02/17 10:04:56;;;;;;;15.52;7.55;;;13.50;82.50;;;;;;4962896;28;20029;-72
2024/02/17 10:07:22;;;;;;;16.73;8.07;;;13.40;82.40;;;;;;4955733;28;20038;-72
2024/02/17 10:09:48;;;;;;;18.30;12.80;;;13.30;83.30;;;;;;4977181;28;20057;-72
2024/02/17 10:12:14;;;;;;;16.90;8.35;;;13.40;83.50;;;;;;4975143;28;20030;-73
2024/02/17 10:14:40;;;;;;;15.02;7.95;;;13.30;83.60;;;;;;4978968;28;20739;-73
2024/02/17 10:17:08;;;;;;;20.30;7.72;;;13.30;83.70;;;;;;4964680;28;20085;-72
2024/02/17 10:19:34;;;;;;;21.05;7.80;;;13.40;83.90;;;;;;4973416;28;20014;-73
2024/02/17 10:22:00;;;;;;;15.70;7.40;;;13.60;84.10;;;;;;4962893;28;20552;-73
2024/02/17 10:24:25;;;;;;;23.30;7.63;;;13.80;83.70;;;;;;4970560;28;20026;-74
2024/02/17 10:26:53;;;;;;;15.85;7.20;;;13.90;82.70;;;;;;4972982;28;20042;-73
2024/02/17 10:29:18;;;;;;;12.85;6.85;;;13.90;82.50;;;;;;4977976;28;20104;-72
2024/02/17 10:31:47;;;;;;;20.02;7.05;;;14.00;82.30;;;;;;4973061;28;20114;-73
2024/02/17 10:34:13;;;;;;;20.48;7.85;;;14.00;81.50;;;;;;4974970;28;20056;-72
2024/02/17 10:36:40;;;;;;;17.67;7.07;;;14.20;81.60;;;;;;4973943;28;20600;-72
2024/02/17 10:39:07;;;;;;;15.93;6.63;;;14.30;80.90;;;;;;4977766;28;20038;-73
2024/02/17 10:41:36;;;;;;;17.30;7.93;;;14.30;81.00;;;;;;4976201;28;20026;-71
2024/02/17 10:44:03;;;;;;;15.60;6.75;;;14.50;80.80;;;;;;4980294;28;20806;-73
2024/02/17 10:46:31;;;;;;;14.38;6.63;;;14.60;79.70;;;;;;4968349;28;20046;-72
2024/02/17 10:49:05;;;;;;;16.75;6.57;;;14.70;79.70;;;;;;4957903;28;20485;-73
2024/02/17 10:51:32;;;;;;;13.25;6.57;;;14.80;79.00;;;;;;4970276;28;20094;-73
2024/02/17 10:54:03;;;;;;;15.15;6.38;;;15.00;78.20;;;;;;4982149;28;20022;-73
2024/02/17 10:56:29;;;;;;;15.98;6.45;;;15.00;78.80;;;;;;4976184;28;20046;-73
2024/02/17 10:58:56;;;;;;;21.20;6.72;;;15.00;78.50;;;;;;4976742;28;20041;-74
2024/02/17 11:01:29;;;;;;;13.68;6.13;;;15.10;78.20;;;;;;4972742;28;20421;-73
2024/02/17 11:03:56;;;;;;;14.77;5.65;;;15.10;77.90;;;;;;4980324;28;20106;-72
2024/02/17 11:06:25;;;;;;;13.70;6.43;;;15.10;77.40;;;;;;4979516;28;20042;-74
2024/02/17 11:08:51;;;;;;;12.40;5.18;;;15.10;77.70;;;;;;4979615;28;20034;-73
2024/02/17 11:11:26;;;;;;;17.20;9.35;;;15.20;75.90;;;;;;4978126;28;20512;-72
2024/02/17 11:13:54;;;;;;;13.07;5.72;;;15.30;75.60;;;;;;4980840;28;20105;-73
2024/02/17 11:16:22;;;;;;;10.13;3.67;;;15.40;74.90;;;;;;4977718;28;20255;-74
2024/02/17 11:18:54;;;;;;;13.35;7.40;;;15.40;73.40;;;;;;4977606;28;20091;-74
2024/02/17 11:21:44;;;;;;;10.38;5.35;;;15.50;74.10;;;;;;4977917;28;20064;-74
2024/02/17 11:24:12;;;;;;;8.23;3.38;;;15.60;74.10;;;;;;4981487;28;20108;-74
2024/02/17 11:26:40;;;;;;;9.80;3.15;;;15.70;72.90;;;;;;4976610;28;20358;-74
2024/02/17 11:29:05;;;;;;;11.57;3.63;;;15.70;73.20;;;;;;4979029;28;20472;-75
2024/02/17 11:31:31;;;;;;;9.68;3.83;;;15.80;73.00;;;;;;4975106;28;20093;-75
2024/02/17 11:34:01;;;;;;;8.43;3.22;;;15.80;73.10;;;;;;4980977;28;20026;-75
2024/02/17 11:36:31;;;;;;;9.98;3.80;;;15.80;72.10;;;;;;4966957;28;20042;-73
2024/02/17 11:38:59;;;;;;;8.95;2.90;;;15.60;72.00;;;;;;4978431;28;20053;-73
2024/02/17 11:41:25;;;;;;;5.72;2.75;;;15.50;72.60;;;;;;4975071;28;20041;-72
2024/02/17 11:43:51;;;;;;;6.80;2.92;;;15.30;72.70;;;;;;4977000;28;20035;-74
2024/02/17 11:46:19;;;;;;;9.85;2.85;;;15.30;73.00;;;;;;4969218;28;20097;-73
2024/02/17 11:48:45;;;;;;;6.57;2.42;;;15.50;72.20;;;;;;4955379;28;20026;-74
2024/02/17 11:51:19;;;;;;;9.30;2.67;;;15.60;72.00;;;;;;4943320;28;20059;-74
2024/02/17 11:53:48;;;;;;;6.40;2.80;;;15.70;72.10;;;;;;4951289;28;20031;-73
2024/02/17 11:56:15;;;;;;;10.63;3.03;;;15.90;72.10;;;;;;4961872;28;20052;-73
2024/02/17 11:58:41;;;;;;;9.63;2.17;;;16.10;71.00;;;;;;4976110;28;20719;-74
2024/02/17 12:01:08;;;;;;;9.25;2.58;;;16.10;69.60;;;;;;4971421;28;20043;-75
2024/02/17 12:03:34;;;;;;;8.85;2.58;;;16.10;69.80;;;;;;4985133;28;20065;-75
2024/02/17 12:06:00;;;;;;;9.45;2.25;;;16.10;68.50;;;;;;4979930;28;20506;-75
2024/02/17 12:08:32;;;;;;;7.72;2.42;;;16.00;69.30;;;;;;4978731;28;20320;-75
2024/02/17 12:10:59;;;;;;;11.63;2.45;;;15.70;69.10;;;;;;4979188;28;20053;-75
2024/02/17 12:13:25;;;;;;;8.10;2.50;;;15.70;70.50;;;;;;4982830;28;20015;-74
2024/02/17 12:15:51;;;;;;;9.60;2.60;;;15.70;70.00;;;;;;4975810;28;20051;-74
2024/02/17 12:18:21;;;;;;;9.68;2.63;;;16.00;69.50;;;;;;4961979;28;20045;-75
2024/02/17 12:20:48;;;;;;;9.70;2.38;;;16.20;69.20;;;;;;4962593;28;20496;-74
2024/02/17 12:23:14;;;;;;;9.68;2.90;;;16.20;69.00;;;;;;4959608;28;20610;-75
2024/02/17 12:25:40;;;;;;;11.85;3.65;;;15.90;70.00;;;;;;4960087;28;20034;-74
2024/02/17 12:28:07;;;;;;;11.18;3.08;;;16.00;69.90;;;;;;4979423;28;20149;-75
2024/02/17 12:30:45;;;;;;;8.80;2.38;;;16.10;70.90;;;;;;4978608;28;20033;-75
2024/02/17 12:33:11;;;;;;;8.43;2.53;;;16.40;69.70;;;;;;4979378;28;20023;-75
2024/02/17 12:35:43;;;;;;;8.70;2.53;;;16.50;68.50;;;;;;4980364;28;20061;-74
2024/02/17 12:38:12;;;;;;;6.47;2.15;;;16.60;68.10;;;;;;4977331;28;20022;-74
2024/02/17 12:40:38;;;;;;;13.68;3.33;;;16.70;67.50;;;;;;4976502;28;20063;-74
2024/02/17 12:43:03;;;;;;;8.98;2.58;;;16.60;67.60;;;;;;4979114;28;20524;-74